sensor_id;sensor_type;location;lat;lon;timestamp;P1;durP1;ratioP1;P2;durP2;ratioP2
63801;SDS011;49949;43.060;25.624;2022-07-19T00:01:38;5.68;;;2.10;;
63801;SDS011;49949;43.060;25.624;2022-07-19T00:04:04;3.47;;;1.88;;
63801;SDS011;49949;43.060;25.624;2022-07-19T00:06:30;3.83;;;2.17;;
63801;SDS011;49949;43.060;25.624;2022-07-19T00:08:56;3.20;;;2.33;;
63801;SDS011;49949;43.060;25.624;2022-07-19T00:11:22;4.05;;;2.40;;
63801;SDS011;49949;43.060;25.624;2022-07-19T00:13:48;7.00;;;2.25;;
63801;SDS011;49949;43.060;25.624;2022-07-19T00:16:13;4.07;;;2.10;;
63801;SDS011;49949;43.060;25.624;2022-07-19T00:18:40;3.00;;;2.40;;
63801;SDS011;49949;43.060;25.624;2022-07-19T00:21:06;2.40;;;2.15;;
63801;SDS011;49949;43.060;25.624;2022-07-19T00:23:31;4.88;;;2.60;;
63801;SDS011;49949;43.060;25.624;2022-07-19T00:25:57;2.88;;;2.42;;
63801;SDS011;49949;43.060;25.624;2022-07-19T00:28:23;4.25;;;2.33;;
63801;SDS011;49949;43.060;25.624;2022-07-19T00:30:49;4.32;;;2.78;;
63801;SDS011;49949;43.060;25.624;2022-07-19T00:33:14;3.40;;;2.05;;
63801;SDS011;49949;43.060;25.624;2022-07-19T00:35:40;2.97;;;2.33;;
63801;SDS011;49949;43.060;25.624;2022-07-19T00:38:10;5.18;;;3.03;;
63801;SDS011;49949;43.060;25.624;2022-07-19T00:40:37;4.43;;;3.25;;
63801;SDS011;49949;43.060;25.624;2022-07-19T00:43:04;11.30;;;2.90;;
63801;SDS011;49949;43.060;25.624;2022-07-19T00:45:29;6.57;;;2.78;;
63801;SDS011;49949;43.060;25.624;2022-07-19T00:47:55;8.27;;;2.50;;
63801;SDS011;49949;43.060;25.624;2022-07-19T00:50:21;10.73;;;2.30;;
63801;SDS011;49949;43.060;25.624;2022-07-19T00:52:57;7.57;;;3.50;;
63801;SDS011;49949;43.060;25.624;2022-07-19T00:55:30;2.60;;;2.20;;
63801;SDS011;49949;43.060;25.624;2022-07-19T00:57:57;3.40;;;2.60;;
63801;SDS011;49949;43.060;25.624;2022-07-19T01:00:24;3.50;;;2.17;;
63801;SDS011;49949;43.060;25.624;2022-07-19T01:02:51;8.18;;;2.63;;
63801;SDS011;49949;43.060;25.624;2022-07-19T01:05:18;6.10;;;2.72;;
63801;SDS011;49949;43.060;25.624;2022-07-19T01:07:44;5.57;;;3.00;;
63801;SDS011;49949;43.060;25.624;2022-07-19T01:10:11;6.38;;;2.80;;
63801;SDS011;49949;43.060;25.624;2022-07-19T01:12:38;6.68;;;2.90;;
63801;SDS011;49949;43.060;25.624;2022-07-19T01:15:24;4.15;;;2.42;;
63801;SDS011;49949;43.060;25.624;2022-07-19T01:17:51;5.72;;;2.65;;
63801;SDS011;49949;43.060;25.624;2022-07-19T01:20:18;3.58;;;2.90;;
63801;SDS011;49949;43.060;25.624;2022-07-19T01:22:48;7.53;;;3.20;;
63801;SDS011;49949;43.060;25.624;2022-07-19T01:25:14;8.85;;;2.80;;
63801;SDS011;49949;43.060;25.624;2022-07-19T01:27:44;4.20;;;3.40;;
63801;SDS011;49949;43.060;25.624;2022-07-19T01:30:13;4.10;;;2.75;;
63801;SDS011;49949;43.060;25.624;2022-07-19T01:32:40;10.20;;;4.10;;
63801;SDS011;49949;43.060;25.624;2022-07-19T01:35:06;5.18;;;4.15;;
63801;SDS011;49949;43.060;25.624;2022-07-19T01:37:33;9.88;;;4.80;;
63801;SDS011;49949;43.060;25.624;2022-07-19T01:39:59;10.13;;;4.22;;
63801;SDS011;49949;43.060;25.624;2022-07-19T01:42:25;6.55;;;4.30;;
63801;SDS011;49949;43.060;25.624;2022-07-19T01:44:50;10.88;;;4.38;;
63801;SDS011;49949;43.060;25.624;2022-07-19T01:47:16;14.77;;;4.45;;
63801;SDS011;49949;43.060;25.624;2022-07-19T01:49:42;18.80;;;4.50;;
63801;SDS011;49949;43.060;25.624;2022-07-19T01:52:08;6.07;;;4.10;;
63801;SDS011;49949;43.060;25.624;2022-07-19T01:54:33;9.40;;;4.18;;
63801;SDS011;49949;43.060;25.624;2022-07-19T01:56:59;13.82;;;3.92;;
63801;SDS011;49949;43.060;25.624;2022-07-19T01:59:25;13.35;;;4.47;;
63801;SDS011;49949;43.060;25.624;2022-07-19T02:01:50;9.38;;;4.35;;
63801;SDS011;49949;43.060;25.624;2022-07-19T02:04:16;9.52;;;4.72;;
63801;SDS011;49949;43.060;25.624;2022-07-19T02:06:42;9.20;;;4.65;;
63801;SDS011;49949;43.060;25.624;2022-07-19T02:09:07;12.88;;;4.40;;
63801;SDS011;49949;43.060;25.624;2022-07-19T02:11:33;11.32;;;5.32;;
63801;SDS011;49949;43.060;25.624;2022-07-19T02:14:05;12.25;;;4.82;;
63801;SDS011;49949;43.060;25.624;2022-07-19T02:16:32;9.68;;;4.18;;
63801;SDS011;49949;43.060;25.624;2022-07-19T02:18:59;15.40;;;4.50;;
63801;SDS011;49949;43.060;25.624;2022-07-19T02:21:24;13.13;;;4.30;;
63801;SDS011;49949;43.060;25.624;2022-07-19T02:23:50;11.90;;;4.10;;
63801;SDS011;49949;43.060;25.624;2022-07-19T02:26:16;11.63;;;4.60;;
63801;SDS011;49949;43.060;25.624;2022-07-19T02:28:42;9.38;;;5.05;;
63801;SDS011;49949;43.060;25.624;2022-07-19T02:31:08;13.65;;;5.00;;
63801;SDS011;49949;43.060;25.624;2022-07-19T02:33:33;6.75;;;4.55;;
63801;SDS011;49949;43.060;25.624;2022-07-19T02:35:59;10.30;;;3.97;;
63801;SDS011;49949;43.060;25.624;2022-07-19T02:38:25;8.43;;;4.70;;
63801;SDS011;49949;43.060;25.624;2022-07-19T02:40:51;15.45;;;4.65;;
63801;SDS011;49949;43.060;25.624;2022-07-19T02:43:16;10.85;;;4.95;;
63801;SDS011;49949;43.060;25.624;2022-07-19T02:45:42;8.27;;;5.20;;
63801;SDS011;49949;43.060;25.624;2022-07-19T02:48:11;14.32;;;5.22;;
63801;SDS011;49949;43.060;25.624;2022-07-19T02:50:36;9.85;;;4.55;;
63801;SDS011;49949;43.060;25.624;2022-07-19T02:53:02;12.15;;;4.65;;
63801;SDS011;49949;43.060;25.624;2022-07-19T02:55:28;12.63;;;5.18;;
63801;SDS011;49949;43.060;25.624;2022-07-19T02:57:53;12.05;;;5.13;;
63801;SDS011;49949;43.060;25.624;2022-07-19T03:00:19;30.00;;;6.65;;
63801;SDS011;49949;43.060;25.624;2022-07-19T03:02:45;11.45;;;5.93;;
63801;SDS011;49949;43.060;25.624;2022-07-19T03:05:11;12.57;;;5.82;;
63801;SDS011;49949;43.060;25.624;2022-07-19T03:07:37;22.67;;;6.25;;
63801;SDS011;49949;43.060;25.624;2022-07-19T03:10:03;10.52;;;5.60;;
63801;SDS011;49949;43.060;25.624;2022-07-19T03:12:29;7.35;;;4.75;;
63801;SDS011;49949;43.060;25.624;2022-07-19T03:14:55;11.45;;;5.45;;
63801;SDS011;49949;43.060;25.624;2022-07-19T03:17:21;15.70;;;5.47;;
63801;SDS011;49949;43.060;25.624;2022-07-19T03:19:47;10.68;;;5.10;;
63801;SDS011;49949;43.060;25.624;2022-07-19T03:22:12;16.42;;;7.90;;
63801;SDS011;49949;43.060;25.624;2022-07-19T03:24:38;15.85;;;5.47;;
63801;SDS011;49949;43.060;25.624;2022-07-19T03:27:04;11.75;;;5.47;;
63801;SDS011;49949;43.060;25.624;2022-07-19T03:29:30;13.80;;;5.72;;
63801;SDS011;49949;43.060;25.624;2022-07-19T03:31:56;17.45;;;5.05;;
63801;SDS011;49949;43.060;25.624;2022-07-19T03:34:22;18.35;;;5.82;;
63801;SDS011;49949;43.060;25.624;2022-07-19T03:36:48;12.52;;;5.10;;
63801;SDS011;49949;43.060;25.624;2022-07-19T03:39:14;6.43;;;5.05;;
63801;SDS011;49949;43.060;25.624;2022-07-19T03:41:40;13.98;;;5.38;;
63801;SDS011;49949;43.060;25.624;2022-07-19T03:44:05;24.10;;;5.22;;
63801;SDS011;49949;43.060;25.624;2022-07-19T03:46:31;9.50;;;5.00;;
63801;SDS011;49949;43.060;25.624;2022-07-19T03:48:57;7.45;;;4.75;;
63801;SDS011;49949;43.060;25.624;2022-07-19T03:51:23;22.83;;;5.68;;
63801;SDS011;49949;43.060;25.624;2022-07-19T03:53:49;7.97;;;4.70;;
63801;SDS011;49949;43.060;25.624;2022-07-19T03:56:15;8.98;;;4.75;;
63801;SDS011;49949;43.060;25.624;2022-07-19T03:58:42;8.73;;;4.88;;
63801;SDS011;49949;43.060;25.624;2022-07-19T04:01:08;10.75;;;6.13;;
63801;SDS011;49949;43.060;25.624;2022-07-19T04:03:37;15.32;;;5.68;;
63801;SDS011;49949;43.060;25.624;2022-07-19T04:06:05;11.43;;;5.55;;
63801;SDS011;49949;43.060;25.624;2022-07-19T04:08:31;18.60;;;6.35;;
63801;SDS011;49949;43.060;25.624;2022-07-19T04:10:58;14.23;;;7.65;;
63801;SDS011;49949;43.060;25.624;2022-07-19T04:13:23;18.80;;;7.38;;
63801;SDS011;49949;43.060;25.624;2022-07-19T04:15:49;23.63;;;9.50;;
63801;SDS011;49949;43.060;25.624;2022-07-19T04:18:15;23.27;;;8.63;;
63801;SDS011;49949;43.060;25.624;2022-07-19T04:20:41;29.15;;;10.50;;
63801;SDS011;49949;43.060;25.624;2022-07-19T04:23:07;31.55;;;9.57;;
63801;SDS011;49949;43.060;25.624;2022-07-19T04:25:32;25.85;;;9.15;;
63801;SDS011;49949;43.060;25.624;2022-07-19T04:27:58;24.90;;;8.73;;
63801;SDS011;49949;43.060;25.624;2022-07-19T04:30:24;31.63;;;9.77;;
63801;SDS011;49949;43.060;25.624;2022-07-19T04:32:50;31.95;;;10.25;;
63801;SDS011;49949;43.060;25.624;2022-07-19T04:35:15;37.88;;;10.00;;
63801;SDS011;49949;43.060;25.624;2022-07-19T04:37:41;64.70;;;16.35;;
63801;SDS011;49949;43.060;25.624;2022-07-19T04:40:08;54.90;;;19.65;;
63801;SDS011;49949;43.060;25.624;2022-07-19T04:42:34;27.13;;;14.10;;
63801;SDS011;49949;43.060;25.624;2022-07-19T04:45:00;46.45;;;22.52;;
63801;SDS011;49949;43.060;25.624;2022-07-19T04:47:26;62.42;;;31.95;;
63801;SDS011;49949;43.060;25.624;2022-07-19T04:49:52;33.83;;;18.15;;
63801;SDS011;49949;43.060;25.624;2022-07-19T04:52:18;44.00;;;14.38;;
63801;SDS011;49949;43.060;25.624;2022-07-19T04:54:43;54.22;;;12.85;;
63801;SDS011;49949;43.060;25.624;2022-07-19T04:57:09;22.98;;;8.05;;
63801;SDS011;49949;43.060;25.624;2022-07-19T04:59:35;290.77;;;30.65;;
63801;SDS011;49949;43.060;25.624;2022-07-19T05:02:01;100.32;;;15.70;;
63801;SDS011;49949;43.060;25.624;2022-07-19T05:04:27;62.13;;;12.68;;
63801;SDS011;49949;43.060;25.624;2022-07-19T05:06:52;39.35;;;11.45;;
63801;SDS011;49949;43.060;25.624;2022-07-19T05:09:22;50.70;;;12.48;;
63801;SDS011;49949;43.060;25.624;2022-07-19T05:11:51;19.73;;;9.85;;
63801;SDS011;49949;43.060;25.624;2022-07-19T05:14:18;43.83;;;10.73;;
63801;SDS011;49949;43.060;25.624;2022-07-19T05:16:44;22.45;;;6.25;;
63801;SDS011;49949;43.060;25.624;2022-07-19T05:19:10;19.33;;;6.32;;
63801;SDS011;49949;43.060;25.624;2022-07-19T05:21:36;10.20;;;4.40;;
63801;SDS011;49949;43.060;25.624;2022-07-19T05:24:02;9.20;;;3.90;;
63801;SDS011;49949;43.060;25.624;2022-07-19T05:26:28;15.35;;;3.85;;
63801;SDS011;49949;43.060;25.624;2022-07-19T05:28:55;13.90;;;5.72;;
63801;SDS011;49949;43.060;25.624;2022-07-19T05:31:20;24.48;;;9.30;;
63801;SDS011;49949;43.060;25.624;2022-07-19T05:33:46;88.55;;;34.92;;
63801;SDS011;49949;43.060;25.624;2022-07-19T05:36:12;84.95;;;31.23;;
63801;SDS011;49949;43.060;25.624;2022-07-19T05:38:38;46.15;;;20.23;;
63801;SDS011;49949;43.060;25.624;2022-07-19T05:41:04;56.45;;;23.23;;
63801;SDS011;49949;43.060;25.624;2022-07-19T05:43:35;55.43;;;28.17;;
63801;SDS011;49949;43.060;25.624;2022-07-19T05:46:02;62.92;;;22.50;;
63801;SDS011;49949;43.060;25.624;2022-07-19T05:48:28;38.22;;;18.83;;
63801;SDS011;49949;43.060;25.624;2022-07-19T05:50:54;58.80;;;20.17;;
63801;SDS011;49949;43.060;25.624;2022-07-19T05:53:20;42.03;;;19.15;;
63801;SDS011;49949;43.060;25.624;2022-07-19T05:55:46;46.85;;;16.00;;
63801;SDS011;49949;43.060;25.624;2022-07-19T05:58:11;53.78;;;18.83;;
63801;SDS011;49949;43.060;25.624;2022-07-19T06:00:37;56.35;;;18.30;;
63801;SDS011;49949;43.060;25.624;2022-07-19T06:03:03;92.57;;;19.48;;
63801;SDS011;49949;43.060;25.624;2022-07-19T06:05:29;42.55;;;19.73;;
63801;SDS011;49949;43.060;25.624;2022-07-19T06:07:55;54.60;;;25.73;;
63801;SDS011;49949;43.060;25.624;2022-07-19T06:10:20;46.38;;;23.25;;
63801;SDS011;49949;43.060;25.624;2022-07-19T06:12:46;463.75;;;36.35;;
63801;SDS011;49949;43.060;25.624;2022-07-19T06:15:12;38.85;;;17.55;;
63801;SDS011;49949;43.060;25.624;2022-07-19T06:17:37;37.13;;;14.20;;
63801;SDS011;49949;43.060;25.624;2022-07-19T06:20:03;68.80;;;19.00;;
63801;SDS011;49949;43.060;25.624;2022-07-19T06:22:30;54.17;;;20.20;;
63801;SDS011;49949;43.060;25.624;2022-07-19T06:24:57;47.92;;;20.77;;
63801;SDS011;49949;43.060;25.624;2022-07-19T06:27:23;48.75;;;19.27;;
63801;SDS011;49949;43.060;25.624;2022-07-19T06:29:49;38.17;;;21.08;;
63801;SDS011;49949;43.060;25.624;2022-07-19T06:32:15;61.75;;;27.73;;
63801;SDS011;49949;43.060;25.624;2022-07-19T06:34:40;51.08;;;25.98;;
63801;SDS011;49949;43.060;25.624;2022-07-19T06:37:06;48.13;;;21.45;;
63801;SDS011;49949;43.060;25.624;2022-07-19T06:39:32;39.15;;;20.55;;
63801;SDS011;49949;43.060;25.624;2022-07-19T06:41:57;47.17;;;20.48;;
63801;SDS011;49949;43.060;25.624;2022-07-19T06:44:23;43.35;;;20.25;;
63801;SDS011;49949;43.060;25.624;2022-07-19T06:46:49;62.38;;;24.38;;
63801;SDS011;49949;43.060;25.624;2022-07-19T06:49:15;41.13;;;21.33;;
63801;SDS011;49949;43.060;25.624;2022-07-19T06:51:41;47.72;;;18.75;;
63801;SDS011;49949;43.060;25.624;2022-07-19T06:54:06;37.85;;;15.85;;
63801;SDS011;49949;43.060;25.624;2022-07-19T06:56:32;34.13;;;15.50;;
63801;SDS011;49949;43.060;25.624;2022-07-19T06:58:58;32.72;;;14.55;;
63801;SDS011;49949;43.060;25.624;2022-07-19T07:01:23;22.70;;;6.43;;
63801;SDS011;49949;43.060;25.624;2022-07-19T07:03:50;24.73;;;6.10;;
63801;SDS011;49949;43.060;25.624;2022-07-19T07:06:16;4.18;;;3.08;;
63801;SDS011;49949;43.060;25.624;2022-07-19T07:08:41;7.10;;;2.30;;
63801;SDS011;49949;43.060;25.624;2022-07-19T07:11:07;71.53;;;4.75;;
63801;SDS011;49949;43.060;25.624;2022-07-19T07:13:33;9.10;;;4.13;;
63801;SDS011;49949;43.060;25.624;2022-07-19T07:15:58;11.95;;;3.65;;
63801;SDS011;49949;43.060;25.624;2022-07-19T07:18:24;15.15;;;4.68;;
63801;SDS011;49949;43.060;25.624;2022-07-19T07:20:50;5.22;;;3.95;;
63801;SDS011;49949;43.060;25.624;2022-07-19T07:23:16;5.85;;;3.10;;
63801;SDS011;49949;43.060;25.624;2022-07-19T07:25:43;8.07;;;3.55;;
63801;SDS011;49949;43.060;25.624;2022-07-19T07:28:09;8.93;;;3.13;;
63801;SDS011;49949;43.060;25.624;2022-07-19T07:30:35;12.55;;;3.20;;
63801;SDS011;49949;43.060;25.624;2022-07-19T07:33:00;9.10;;;2.97;;
63801;SDS011;49949;43.060;25.624;2022-07-19T07:35:26;23.50;;;3.50;;
63801;SDS011;49949;43.060;25.624;2022-07-19T07:37:52;56.03;;;4.97;;
63801;SDS011;49949;43.060;25.624;2022-07-19T07:40:18;10.90;;;1.92;;
63801;SDS011;49949;43.060;25.624;2022-07-19T07:42:44;6.70;;;1.58;;
63801;SDS011;49949;43.060;25.624;2022-07-19T07:45:09;2.35;;;1.15;;
63801;SDS011;49949;43.060;25.624;2022-07-19T07:47:35;6.78;;;1.20;;
63801;SDS011;49949;43.060;25.624;2022-07-19T07:50:02;8.02;;;1.45;;
63801;SDS011;49949;43.060;25.624;2022-07-19T07:52:29;7.07;;;1.00;;
63801;SDS011;49949;43.060;25.624;2022-07-19T07:54:55;1.08;;;1.00;;
63801;SDS011;49949;43.060;25.624;2022-07-19T07:57:20;3.17;;;0.98;;
63801;SDS011;49949;43.060;25.624;2022-07-19T07:59:46;5.45;;;1.20;;
63801;SDS011;49949;43.060;25.624;2022-07-19T08:02:12;0.93;;;0.85;;
63801;SDS011;49949;43.060;25.624;2022-07-19T08:04:37;3.65;;;1.65;;
63801;SDS011;49949;43.060;25.624;2022-07-19T08:07:03;5.35;;;1.17;;
63801;SDS011;49949;43.060;25.624;2022-07-19T08:09:29;5.07;;;1.00;;
63801;SDS011;49949;43.060;25.624;2022-07-19T08:11:55;3.28;;;0.63;;
63801;SDS011;49949;43.060;25.624;2022-07-19T08:14:21;2.47;;;0.90;;
63801;SDS011;49949;43.060;25.624;2022-07-19T08:16:47;2.88;;;0.93;;
63801;SDS011;49949;43.060;25.624;2022-07-19T08:19:13;1.67;;;0.80;;
63801;SDS011;49949;43.060;25.624;2022-07-19T08:21:38;1.20;;;0.60;;
63801;SDS011;49949;43.060;25.624;2022-07-19T08:24:04;0.80;;;0.70;;
63801;SDS011;49949;43.060;25.624;2022-07-19T08:26:30;0.95;;;0.70;;
63801;SDS011;49949;43.060;25.624;2022-07-19T08:28:56;24.08;;;2.72;;
63801;SDS011;49949;43.060;25.624;2022-07-19T08:31:22;1.95;;;0.80;;
63801;SDS011;49949;43.060;25.624;2022-07-19T08:33:48;3.85;;;1.20;;
63801;SDS011;49949;43.060;25.624;2022-07-19T08:36:14;6.03;;;1.30;;
63801;SDS011;49949;43.060;25.624;2022-07-19T08:38:40;3.35;;;1.00;;
63801;SDS011;49949;43.060;25.624;2022-07-19T08:41:06;1.92;;;0.90;;
63801;SDS011;49949;43.060;25.624;2022-07-19T08:43:32;0.80;;;0.70;;
63801;SDS011;49949;43.060;25.624;2022-07-19T08:45:59;1.30;;;0.95;;
63801;SDS011;49949;43.060;25.624;2022-07-19T08:48:29;2.35;;;0.80;;
63801;SDS011;49949;43.060;25.624;2022-07-19T08:50:57;4.15;;;0.88;;
63801;SDS011;49949;43.060;25.624;2022-07-19T08:53:24;1.75;;;0.68;;
63801;SDS011;49949;43.060;25.624;2022-07-19T08:55:53;2.17;;;0.75;;
63801;SDS011;49949;43.060;25.624;2022-07-19T08:58:19;4.70;;;1.17;;
63801;SDS011;49949;43.060;25.624;2022-07-19T09:00:45;3.67;;;0.68;;
63801;SDS011;49949;43.060;25.624;2022-07-19T09:03:11;10.63;;;0.93;;
63801;SDS011;49949;43.060;25.624;2022-07-19T09:05:37;35.60;;;2.00;;
63801;SDS011;49949;43.060;25.624;2022-07-19T09:08:16;6.80;;;0.90;;
63801;SDS011;49949;43.060;25.624;2022-07-19T09:10:43;0.60;;;0.60;;
63801;SDS011;49949;43.060;25.624;2022-07-19T09:13:33;2.22;;;0.85;;
63801;SDS011;49949;43.060;25.624;2022-07-19T09:16:00;2.05;;;0.93;;
63801;SDS011;49949;43.060;25.624;2022-07-19T09:18:30;6.65;;;0.90;;
63801;SDS011;49949;43.060;25.624;2022-07-19T09:20:58;1.85;;;1.00;;
63801;SDS011;49949;43.060;25.624;2022-07-19T09:23:26;10.55;;;1.30;;
63801;SDS011;49949;43.060;25.624;2022-07-19T09:25:56;1.63;;;0.70;;
63801;SDS011;49949;43.060;25.624;2022-07-19T09:28:24;2.25;;;0.85;;
63801;SDS011;49949;43.060;25.624;2022-07-19T09:30:55;5.53;;;1.13;;
63801;SDS011;49949;43.060;25.624;2022-07-19T09:33:24;1.30;;;1.00;;
63801;SDS011;49949;43.060;25.624;2022-07-19T09:36:03;4.22;;;1.50;;
63801;SDS011;49949;43.060;25.624;2022-07-19T09:38:36;3.45;;;0.73;;
63801;SDS011;49949;43.060;25.624;2022-07-19T09:41:12;2.58;;;1.10;;
63801;SDS011;49949;43.060;25.624;2022-07-19T09:46:28;12.93;;;1.17;;
63801;SDS011;49949;43.060;25.624;2022-07-19T09:49:18;6.03;;;0.90;;
63801;SDS011;49949;43.060;25.624;2022-07-19T09:51:47;6.50;;;1.00;;
63801;SDS011;49949;43.060;25.624;2022-07-19T09:54:16;4.32;;;0.93;;
63801;SDS011;49949;43.060;25.624;2022-07-19T09:56:44;1.95;;;0.70;;
63801;SDS011;49949;43.060;25.624;2022-07-19T09:59:12;2.80;;;0.70;;
63801;SDS011;49949;43.060;25.624;2022-07-19T10:01:38;3.15;;;0.98;;
63801;SDS011;49949;43.060;25.624;2022-07-19T10:04:09;2.65;;;0.80;;
63801;SDS011;49949;43.060;25.624;2022-07-19T10:06:40;22.17;;;1.55;;
63801;SDS011;49949;43.060;25.624;2022-07-19T10:09:08;1.10;;;1.00;;
63801;SDS011;49949;43.060;25.624;2022-07-19T10:11:37;2.45;;;0.82;;
63801;SDS011;49949;43.060;25.624;2022-07-19T10:14:04;3.25;;;0.93;;
63801;SDS011;49949;43.060;25.624;2022-07-19T10:22:27;5.22;;;1.92;;
63801;SDS011;49949;43.060;25.624;2022-07-19T10:27:39;41.80;;;2.42;;
63801;SDS011;49949;43.060;25.624;2022-07-19T10:32:47;32.72;;;2.45;;
63801;SDS011;49949;43.060;25.624;2022-07-19T10:45:37;39.60;;;3.20;;
63801;SDS011;49949;43.060;25.624;2022-07-19T10:48:10;1.55;;;0.80;;
63801;SDS011;49949;43.060;25.624;2022-07-19T10:50:51;1.70;;;0.93;;
63801;SDS011;49949;43.060;25.624;2022-07-19T10:56:18;4.88;;;1.20;;
63801;SDS011;49949;43.060;25.624;2022-07-19T11:01:23;91.50;;;5.75;;
63801;SDS011;49949;43.060;25.624;2022-07-19T11:03:50;6.30;;;1.00;;
63801;SDS011;49949;43.060;25.624;2022-07-19T11:06:19;3.42;;;1.02;;
63801;SDS011;49949;43.060;25.624;2022-07-19T11:08:45;5.40;;;1.30;;
63801;SDS011;49949;43.060;25.624;2022-07-19T11:11:12;42.70;;;2.45;;
63801;SDS011;49949;43.060;25.624;2022-07-19T11:13:43;15.55;;;1.42;;
63801;SDS011;49949;43.060;25.624;2022-07-19T11:16:11;1.50;;;1.40;;
63801;SDS011;49949;43.060;25.624;2022-07-19T11:18:38;5.78;;;1.33;;
63801;SDS011;49949;43.060;25.624;2022-07-19T11:21:04;1.35;;;0.73;;
63801;SDS011;49949;43.060;25.624;2022-07-19T11:23:32;31.02;;;2.88;;
63801;SDS011;49949;43.060;25.624;2022-07-19T11:28:31;4.28;;;1.55;;
63801;SDS011;49949;43.060;25.624;2022-07-19T11:30:57;7.45;;;1.65;;
63801;SDS011;49949;43.060;25.624;2022-07-19T11:33:23;3.58;;;1.13;;
63801;SDS011;49949;43.060;25.624;2022-07-19T11:38:21;36.90;;;2.13;;
63801;SDS011;49949;43.060;25.624;2022-07-19T11:40:47;11.13;;;1.50;;
63801;SDS011;49949;43.060;25.624;2022-07-19T11:43:13;3.85;;;1.20;;
63801;SDS011;49949;43.060;25.624;2022-07-19T11:45:43;5.15;;;1.20;;
63801;SDS011;49949;43.060;25.624;2022-07-19T11:48:23;3.35;;;1.15;;
63801;SDS011;49949;43.060;25.624;2022-07-19T11:51:00;4.18;;;0.90;;
63801;SDS011;49949;43.060;25.624;2022-07-19T11:53:27;4.50;;;1.10;;
63801;SDS011;49949;43.060;25.624;2022-07-19T11:55:53;2.67;;;0.90;;
63801;SDS011;49949;43.060;25.624;2022-07-19T11:58:18;84.65;;;7.60;;
63801;SDS011;49949;43.060;25.624;2022-07-19T12:00:45;2.10;;;1.02;;
63801;SDS011;49949;43.060;25.624;2022-07-19T12:03:15;1.48;;;0.77;;
63801;SDS011;49949;43.060;25.624;2022-07-19T12:05:56;3.17;;;0.82;;
63801;SDS011;49949;43.060;25.624;2022-07-19T12:08:36;54.45;;;2.47;;
63801;SDS011;49949;43.060;25.624;2022-07-19T12:11:17;3.00;;;0.70;;
63801;SDS011;49949;43.060;25.624;2022-07-19T12:13:43;9.45;;;1.55;;
63801;SDS011;49949;43.060;25.624;2022-07-19T12:16:10;8.70;;;1.75;;
63801;SDS011;49949;43.060;25.624;2022-07-19T12:21:52;3.22;;;1.05;;
63801;SDS011;49949;43.060;25.624;2022-07-19T12:24:15;7.85;;;1.15;;
63801;SDS011;49949;43.060;25.624;2022-07-19T12:29:28;21.80;;;1.75;;
63801;SDS011;49949;43.060;25.624;2022-07-19T12:32:01;1.88;;;0.80;;
63801;SDS011;49949;43.060;25.624;2022-07-19T12:39:55;2.35;;;0.70;;
63801;SDS011;49949;43.060;25.624;2022-07-19T12:42:37;14.82;;;2.10;;
63801;SDS011;49949;43.060;25.624;2022-07-19T12:45:16;97.05;;;5.22;;
63801;SDS011;49949;43.060;25.624;2022-07-19T12:47:43;29.45;;;2.42;;
63801;SDS011;49949;43.060;25.624;2022-07-19T12:50:18;9.38;;;2.08;;
63801;SDS011;49949;43.060;25.624;2022-07-19T12:52:45;5.82;;;1.17;;
63801;SDS011;49949;43.060;25.624;2022-07-19T12:55:11;47.08;;;2.65;;
63801;SDS011;49949;43.060;25.624;2022-07-19T12:57:36;5.43;;;1.08;;
63801;SDS011;49949;43.060;25.624;2022-07-19T13:00:03;3.70;;;1.05;;
63801;SDS011;49949;43.060;25.624;2022-07-19T13:02:30;1.20;;;0.80;;
63801;SDS011;49949;43.060;25.624;2022-07-19T13:04:56;6.47;;;1.40;;
63801;SDS011;49949;43.060;25.624;2022-07-19T13:07:22;3.53;;;0.80;;
63801;SDS011;49949;43.060;25.624;2022-07-19T13:09:48;189.23;;;8.65;;
63801;SDS011;49949;43.060;25.624;2022-07-19T13:12:13;5.90;;;1.13;;
63801;SDS011;49949;43.060;25.624;2022-07-19T13:14:40;4.00;;;1.00;;
63801;SDS011;49949;43.060;25.624;2022-07-19T13:17:06;8.15;;;1.48;;
63801;SDS011;49949;43.060;25.624;2022-07-19T13:19:35;3.70;;;1.02;;
63801;SDS011;49949;43.060;25.624;2022-07-19T13:22:04;1.45;;;0.90;;
63801;SDS011;49949;43.060;25.624;2022-07-19T13:24:31;3.33;;;0.98;;
63801;SDS011;49949;43.060;25.624;2022-07-19T13:26:56;2.05;;;0.70;;
63801;SDS011;49949;43.060;25.624;2022-07-19T13:29:22;2.05;;;1.00;;
63801;SDS011;49949;43.060;25.624;2022-07-19T13:31:48;6.63;;;1.10;;
63801;SDS011;49949;43.060;25.624;2022-07-19T13:34:15;3.28;;;1.17;;
63801;SDS011;49949;43.060;25.624;2022-07-19T13:36:41;4.05;;;1.30;;
63801;SDS011;49949;43.060;25.624;2022-07-19T13:39:07;4.75;;;0.80;;
63801;SDS011;49949;43.060;25.624;2022-07-19T13:41:35;3.78;;;1.13;;
63801;SDS011;49949;43.060;25.624;2022-07-19T13:44:02;1.63;;;0.80;;
63801;SDS011;49949;43.060;25.624;2022-07-19T13:46:28;1.05;;;1.02;;
63801;SDS011;49949;43.060;25.624;2022-07-19T13:48:54;9.63;;;1.73;;
63801;SDS011;49949;43.060;25.624;2022-07-19T13:51:20;8.23;;;0.90;;
63801;SDS011;49949;43.060;25.624;2022-07-19T13:53:45;2.13;;;1.08;;
63801;SDS011;49949;43.060;25.624;2022-07-19T13:56:12;5.28;;;1.35;;
63801;SDS011;49949;43.060;25.624;2022-07-19T13:58:38;1.90;;;0.90;;
63801;SDS011;49949;43.060;25.624;2022-07-19T14:01:04;6.10;;;0.98;;
63801;SDS011;49949;43.060;25.624;2022-07-19T14:03:29;820.00;;;38.78;;
63801;SDS011;49949;43.060;25.624;2022-07-19T14:05:55;123.20;;;6.40;;
63801;SDS011;49949;43.060;25.624;2022-07-19T14:08:21;8.43;;;1.30;;
63801;SDS011;49949;43.060;25.624;2022-07-19T14:10:47;6.47;;;1.50;;
63801;SDS011;49949;43.060;25.624;2022-07-19T14:13:12;19.40;;;2.45;;
63801;SDS011;49949;43.060;25.624;2022-07-19T14:15:38;7.63;;;1.58;;
63801;SDS011;49949;43.060;25.624;2022-07-19T14:18:05;2.70;;;1.20;;
63801;SDS011;49949;43.060;25.624;2022-07-19T14:20:31;4.50;;;1.00;;
63801;SDS011;49949;43.060;25.624;2022-07-19T14:22:56;2.85;;;1.35;;
63801;SDS011;49949;43.060;25.624;2022-07-19T14:25:22;1.70;;;1.60;;
63801;SDS011;49949;43.060;25.624;2022-07-19T14:27:48;4.93;;;0.93;;
63801;SDS011;49949;43.060;25.624;2022-07-19T14:30:14;1.67;;;0.70;;
63801;SDS011;49949;43.060;25.624;2022-07-19T14:32:40;1.77;;;1.00;;
63801;SDS011;49949;43.060;25.624;2022-07-19T14:35:06;4.60;;;0.80;;
63801;SDS011;49949;43.060;25.624;2022-07-19T14:37:32;1.33;;;0.90;;
63801;SDS011;49949;43.060;25.624;2022-07-19T14:39:58;1.80;;;0.93;;
63801;SDS011;49949;43.060;25.624;2022-07-19T14:42:24;8.95;;;2.30;;
63801;SDS011;49949;43.060;25.624;2022-07-19T14:44:50;5.68;;;1.20;;
63801;SDS011;49949;43.060;25.624;2022-07-19T14:47:15;1.80;;;0.70;;
63801;SDS011;49949;43.060;25.624;2022-07-19T14:49:41;2.25;;;0.80;;
63801;SDS011;49949;43.060;25.624;2022-07-19T14:52:07;1.75;;;0.93;;
63801;SDS011;49949;43.060;25.624;2022-07-19T14:54:32;2.13;;;1.02;;
63801;SDS011;49949;43.060;25.624;2022-07-19T14:56:58;2.97;;;1.48;;
63801;SDS011;49949;43.060;25.624;2022-07-19T14:59:24;1.80;;;0.85;;
63801;SDS011;49949;43.060;25.624;2022-07-19T15:01:50;4.05;;;1.08;;
63801;SDS011;49949;43.060;25.624;2022-07-19T15:04:17;0.80;;;0.80;;
63801;SDS011;49949;43.060;25.624;2022-07-19T15:06:43;3.42;;;1.13;;
63801;SDS011;49949;43.060;25.624;2022-07-19T15:09:10;5.18;;;0.80;;
63801;SDS011;49949;43.060;25.624;2022-07-19T15:11:37;2.03;;;1.00;;